Terra Alta, West Virginia
Current Conditions -  °F | °C
As of 1:40 PM on Sunday 23 Nov 2014 (Local Time) from K2G4 Reporting Station
Clear Clear  
Wind Chill: 54°   Ceiling: Unl
Heat Index: 54°   Visibility: 10mi
Dew Point: 34°   Wind: 12mph
Humidity: 47%   Direction: 130°SE
Pressure: 30.01"   Gusts: 18mph
Location:  39.45°N, 79.55°W
Report Text: K2G4 231840Z AUTO 13010G16KT 10SM CLR 12/01 A3001 RMK AO1
Loading
Personal Weather Stations






























Interactive Weather Map New forecast layout! Learn more

10-Day Weather Forecast

Advertisements
Track Severe Weather on mobile